createdAt,value
2023-02-01T00:08:57.660Z,1022.62
2023-02-01T00:18:57.692Z,1022.47
2023-02-01T00:28:58.023Z,1022.48
2023-02-01T00:38:58.068Z,1022.46
2023-02-01T00:48:58.406Z,1022.26
2023-02-01T00:58:58.438Z,1022.09
2023-02-01T01:08:58.777Z,1022.13
2023-02-01T01:18:58.800Z,1021.94
2023-02-01T01:28:59.168Z,1022.07
2023-02-01T01:38:59.183Z,1022.22
2023-02-01T01:48:59.505Z,1022.22
2023-02-01T01:58:59.533Z,1021.93
2023-02-01T02:08:59.796Z,1021.97
2023-02-01T02:19:00.046Z,1021.99
2023-02-01T02:29:00.149Z,1022.01
2023-02-01T02:39:00.540Z,1022.11
2023-02-01T02:49:00.585Z,1022.07
2023-02-01T02:59:00.829Z,1022.03
2023-02-01T03:09:01.103Z,1022.18
2023-02-01T03:19:01.345Z,1022.08
2023-02-01T03:29:01.672Z,1022.09
2023-02-01T03:39:01.724Z,1022.06
2023-02-01T03:49:03.062Z,1022.12
2023-02-01T03:59:02.088Z,1022.13
2023-02-01T04:09:02.402Z,1021.99
2023-02-01T04:19:02.437Z,1021.78
2023-02-01T04:29:02.789Z,1021.75
2023-02-01T04:39:02.823Z,1021.85
2023-02-01T04:49:03.160Z,1021.94
2023-02-01T04:59:03.192Z,1022.12
2023-02-01T05:09:03.522Z,1022.33
2023-02-01T05:19:03.605Z,1022.72
2023-02-01T05:29:03.705Z,1022.89
2023-02-01T05:39:03.751Z,1022.84
2023-02-01T05:49:04.061Z,1022.72
2023-02-01T05:59:09.616Z,1022.50
2023-02-01T06:09:04.289Z,1022.64
2023-02-01T06:19:04.602Z,1022.89
2023-02-01T06:29:04.649Z,1022.93
2023-02-01T06:39:04.988Z,1022.86
2023-02-01T06:49:05.023Z,1023.00
2023-02-01T06:59:05.372Z,1022.93
2023-02-01T07:09:05.392Z,1023.17
2023-02-01T07:19:05.639Z,1023.21
2023-02-01T07:29:05.874Z,1023.38
2023-02-01T07:39:06.191Z,1023.52
2023-02-01T07:49:06.242Z,1023.51
2023-02-01T07:59:06.567Z,1023.39
2023-02-01T08:09:06.599Z,1023.66
2023-02-01T08:19:06.932Z,1023.37
2023-02-01T08:29:06.967Z,1023.54
2023-02-01T08:39:07.311Z,1023.26
2023-02-01T08:49:07.357Z,1023.07
2023-02-01T08:59:07.748Z,1022.97
2023-02-01T09:09:07.818Z,1023.15
2023-02-01T09:19:25.084Z,1023.78
2023-02-01T09:29:09.252Z,1023.58
2023-02-01T09:39:08.491Z,1023.71
2023-02-01T09:49:08.799Z,1023.67
2023-02-01T09:59:08.846Z,1023.85
2023-02-01T10:09:09.199Z,1023.77
2023-02-01T10:19:09.223Z,1023.79
2023-02-01T10:29:09.661Z,1023.71
2023-02-01T10:39:09.696Z,1023.40
2023-02-01T10:49:10.038Z,1023.11
2023-02-01T10:59:10.082Z,1023.10
2023-02-01T11:09:10.390Z,1023.02
2023-02-01T11:19:10.458Z,1023.00
2023-02-01T11:29:10.771Z,1022.90
2023-02-01T11:39:10.793Z,1022.70
2023-02-01T11:49:11.142Z,1022.61
2023-02-01T11:59:11.178Z,1022.33
2023-02-01T12:09:11.515Z,1022.17
2023-02-01T12:19:11.557Z,1022.09
2023-02-01T12:29:13.805Z,1022.26
2023-02-01T12:39:12.030Z,1021.98
2023-02-01T12:49:12.343Z,1021.77
2023-02-01T12:59:12.391Z,1021.38
2023-02-01T13:09:12.730Z,1021.27
2023-02-01T13:19:12.764Z,1021.08
2023-02-01T13:29:13.083Z,1021.23
2023-02-01T13:39:13.140Z,1021.22
2023-02-01T13:49:13.457Z,1020.93
2023-02-01T13:59:13.866Z,1020.84
2023-02-01T14:09:15.151Z,1021.14
2023-02-01T14:19:13.951Z,1021.07
2023-02-01T14:29:20.339Z,1021.46
2023-02-01T14:39:15.419Z,1021.54
2023-02-01T14:49:14.525Z,1021.82
2023-02-01T14:59:14.560Z,1021.75
2023-02-01T15:09:14.957Z,1021.80
2023-02-01T15:19:14.991Z,1021.69
2023-02-01T15:29:15.458Z,1021.55
2023-02-01T15:39:15.295Z,1021.59
2023-02-01T15:49:15.576Z,1021.60
2023-02-01T15:59:15.611Z,1021.74
2023-02-01T16:09:15.967Z,1021.97
2023-02-01T16:19:16.005Z,1022.34
2023-02-01T16:29:16.248Z,1022.47
2023-02-01T16:39:16.475Z,1022.63
2023-02-01T16:49:16.945Z,1022.80
2023-02-01T16:59:17.054Z,1023.02
2023-02-01T17:09:17.949Z,1022.97
2023-02-01T17:19:17.139Z,1022.93
2023-02-01T17:29:17.267Z,1023.09
2023-02-01T17:39:17.624Z,1022.97
2023-02-01T17:49:17.593Z,1022.99
2023-02-01T17:59:17.752Z,1023.08
2023-02-01T18:09:17.973Z,1022.95
2023-02-01T18:19:18.041Z,1023.01
2023-02-01T18:29:18.547Z,1023.07
2023-02-01T18:39:18.688Z,1023.08
2023-02-01T18:49:19.716Z,1023.10
2023-02-01T18:59:19.617Z,1023.02
2023-02-01T19:09:19.227Z,1022.87
2023-02-01T19:19:19.888Z,1022.89
2023-02-01T19:29:19.392Z,1023.18
2023-02-01T19:39:19.377Z,1023.32
2023-02-01T19:49:19.630Z,1023.41
2023-02-01T19:59:19.826Z,1023.44
2023-02-01T20:09:19.140Z,1023.48
2023-02-01T20:19:19.160Z,1023.54
2023-02-01T20:29:20.364Z,1023.79
2023-02-01T20:39:21.639Z,1023.89
2023-02-01T20:49:20.563Z,1023.94
2023-02-01T20:59:20.784Z,1023.93
2023-02-01T21:09:21.738Z,1024.01
2023-02-01T21:19:20.860Z,1024.02
2023-02-01T21:29:20.979Z,1023.87
2023-02-01T21:39:21.222Z,1023.83
2023-02-01T21:49:21.456Z,1023.80
2023-02-01T21:59:22.262Z,1023.81
2023-02-01T22:09:23.783Z,1023.68
2023-02-01T22:19:21.896Z,1023.76
2023-02-01T22:29:23.002Z,1023.92
2023-02-01T22:39:22.239Z,1024.14
2023-02-01T22:49:22.565Z,1023.84
2023-02-01T22:59:22.594Z,1023.77
2023-02-01T23:09:22.900Z,1023.58
2023-02-01T23:19:23.081Z,1023.46
2023-02-01T23:29:23.176Z,1023.49
2023-02-01T23:39:23.213Z,1023.45
2023-02-01T23:49:23.545Z,1023.54
2023-02-01T23:59:23.572Z,1023.46
